createdAt,value
2019-01-27T00:00:18.961Z,-1.02
2019-01-27T00:01:18.937Z,-1.10
2019-01-27T00:02:18.919Z,-1.20
2019-01-27T00:03:18.897Z,-1.13
2019-01-27T00:04:18.970Z,-1.13
2019-01-27T00:05:18.863Z,-1.09
2019-01-27T00:06:18.838Z,-1.17
2019-01-27T00:07:18.814Z,-1.15
2019-01-27T00:08:18.798Z,-1.15
2019-01-27T00:09:18.776Z,-1.19
2019-01-27T00:10:18.758Z,-1.15
2019-01-27T00:11:18.740Z,-1.13
2019-01-27T00:12:18.714Z,-1.22
2019-01-27T00:13:18.700Z,-1.13
2019-01-27T00:14:18.676Z,-1.10
2019-01-27T00:15:18.657Z,-1.07
2019-01-27T00:16:18.643Z,-1.09
2019-01-27T00:17:18.619Z,-1.09
2019-01-27T00:18:18.599Z,-1.07
2019-01-27T00:19:18.582Z,-1.07
2019-01-27T00:20:18.564Z,-1.02
2019-01-27T00:21:18.542Z,-1.04
2019-01-27T00:22:18.516Z,-0.99
2019-01-27T00:23:18.494Z,-0.99
2019-01-27T00:24:18.476Z,-1.02
2019-01-27T00:25:18.460Z,-0.99
2019-01-27T00:26:18.438Z,-1.01
2019-01-27T00:27:18.417Z,-1.01
2019-01-27T00:28:18.406Z,-0.99
2019-01-27T00:29:18.382Z,-0.94
2019-01-27T00:30:18.361Z,-0.95
2019-01-27T00:31:18.338Z,-0.91
2019-01-27T00:32:18.320Z,-0.95
2019-01-27T00:33:18.301Z,-0.98
2019-01-27T00:34:18.282Z,-0.99
2019-01-27T00:35:18.257Z,-0.95
2019-01-27T00:36:18.242Z,-0.98
2019-01-27T00:37:18.225Z,-1.04
2019-01-27T00:38:18.200Z,-1.01
2019-01-27T00:39:18.184Z,-0.98
2019-01-27T00:40:18.171Z,-1.09
2019-01-27T00:41:18.140Z,-1.05
2019-01-27T00:42:18.120Z,-1.09
2019-01-27T00:43:18.104Z,-1.09
2019-01-27T00:44:18.082Z,-1.15
2019-01-27T00:45:18.065Z,-1.15
2019-01-27T00:46:18.040Z,-1.17
2019-01-27T00:47:18.026Z,-1.20
2019-01-27T00:48:18.008Z,-1.20
2019-01-27T00:49:17.986Z,-1.38
2019-01-27T00:50:17.968Z,-1.22
2019-01-27T00:51:17.941Z,-1.17
2019-01-27T00:52:17.919Z,-1.31
2019-01-27T00:53:17.909Z,-1.20
2019-01-27T00:54:17.882Z,-1.25
2019-01-27T00:55:17.867Z,-1.28
2019-01-27T00:56:17.848Z,-1.25
2019-01-27T00:57:17.828Z,-1.34
2019-01-27T00:58:17.808Z,-1.31
2019-01-27T00:59:17.784Z,-1.17
2019-01-27T01:00:17.764Z,-1.31
2019-01-27T01:01:17.744Z,-1.19
2019-01-27T01:02:17.727Z,-1.19
2019-01-27T01:03:17.702Z,-1.17
2019-01-27T01:04:17.683Z,-1.15
2019-01-27T01:05:17.665Z,-1.02
2019-01-27T01:06:17.644Z,-0.99
2019-01-27T01:07:17.627Z,-1.05
2019-01-27T01:08:17.602Z,-1.01
2019-01-27T01:09:17.590Z,-1.02
2019-01-27T01:10:17.564Z,-1.01
2019-01-27T01:11:17.548Z,-1.04
2019-01-27T01:12:17.522Z,-0.97
2019-01-27T01:13:17.504Z,-0.94
2019-01-27T01:14:17.494Z,-0.94
2019-01-27T01:15:17.464Z,-0.98
2019-01-27T01:16:17.442Z,-0.92
2019-01-27T01:17:17.426Z,-0.94
2019-01-27T01:18:17.405Z,-0.95
2019-01-27T01:19:17.390Z,-0.95
2019-01-27T01:20:17.365Z,-0.99
2019-01-27T01:21:17.344Z,-0.97
2019-01-27T01:22:17.333Z,-0.98
2019-01-27T01:23:17.302Z,-1.02
2019-01-27T01:24:17.288Z,-1.01
2019-01-27T01:25:17.267Z,-0.99
2019-01-27T01:26:17.242Z,-1.02
2019-01-27T01:27:17.218Z,-1.09
2019-01-27T01:28:17.205Z,-1.04
2019-01-27T01:29:17.183Z,-1.10
2019-01-27T01:30:17.159Z,-0.99
2019-01-27T01:31:17.146Z,-0.99
2019-01-27T01:32:17.123Z,-1.09
2019-01-27T01:33:17.103Z,-1.17
2019-01-27T01:34:17.083Z,-1.17
2019-01-27T01:35:17.073Z,-1.17
2019-01-27T01:36:17.045Z,-1.12
2019-01-27T01:37:17.024Z,-1.10
2019-01-27T01:38:17.004Z,-1.10
2019-01-27T01:39:16.989Z,-1.09
2019-01-27T01:40:16.962Z,-1.10
2019-01-27T01:41:16.946Z,-1.12
2019-01-27T01:42:16.924Z,-1.04
2019-01-27T01:43:16.900Z,-1.09
2019-01-27T01:44:16.880Z,-1.10
2019-01-27T01:45:16.865Z,-1.10
2019-01-27T01:46:16.837Z,-1.12
2019-01-27T01:47:16.818Z,-1.09
2019-01-27T01:48:16.803Z,-1.02
2019-01-27T01:49:16.786Z,-1.04
2019-01-27T01:50:16.765Z,-0.94
2019-01-27T01:51:16.743Z,-0.98
2019-01-27T01:52:16.723Z,-1.01
2019-01-27T01:53:16.698Z,-0.94
2019-01-27T01:54:16.683Z,-0.94
2019-01-27T01:55:16.693Z,-0.85
2019-01-27T01:56:16.643Z,-0.82
2019-01-27T01:57:16.619Z,-0.86
2019-01-27T01:58:16.597Z,-0.86
2019-01-27T01:59:16.578Z,-0.85
2019-01-27T02:00:16.565Z,-0.89
2019-01-27T02:01:16.540Z,-0.83
2019-01-27T02:02:16.520Z,-0.78
2019-01-27T02:03:16.498Z,-0.85
2019-01-27T02:04:16.480Z,-0.75
2019-01-27T02:05:16.454Z,-0.73
2019-01-27T02:06:16.434Z,-0.73
2019-01-27T02:07:16.427Z,-0.80
2019-01-27T02:08:16.393Z,-0.70
2019-01-27T02:09:16.378Z,-0.73
2019-01-27T02:10:16.360Z,-0.78
2019-01-27T02:11:16.335Z,-0.73
2019-01-27T02:12:16.317Z,-0.79
2019-01-27T02:13:16.298Z,-0.82
2019-01-27T02:14:16.281Z,-0.72
2019-01-27T02:15:16.264Z,-0.72
2019-01-27T02:16:16.245Z,-0.70
2019-01-27T02:17:16.229Z,-0.82
2019-01-27T02:18:16.220Z,-0.80
2019-01-27T02:19:16.182Z,-0.76
2019-01-27T02:20:16.166Z,-0.82
2019-01-27T02:21:16.140Z,-0.76
2019-01-27T02:22:16.118Z,-0.86
2019-01-27T02:23:16.095Z,-0.79
2019-01-27T02:24:16.075Z,-0.78
2019-01-27T02:25:16.061Z,-0.79
2019-01-27T02:26:16.041Z,-0.78
2019-01-27T02:27:16.024Z,-0.85
2019-01-27T02:28:15.998Z,-0.97
2019-01-27T02:29:15.986Z,-0.92
2019-01-27T02:30:15.957Z,-0.97
2019-01-27T02:31:15.943Z,-1.05
2019-01-27T02:32:15.921Z,-0.97
2019-01-27T02:33:15.902Z,-0.94
2019-01-27T02:34:15.878Z,-1.05
2019-01-27T02:35:15.855Z,-1.01
2019-01-27T02:36:15.837Z,-1.05
2019-01-27T02:37:15.819Z,-1.01
2019-01-27T02:38:15.807Z,-1.04
2019-01-27T02:39:15.786Z,-1.04
2019-01-27T02:40:15.758Z,-1.05
2019-01-27T02:41:15.738Z,-1.02
2019-01-27T02:42:15.722Z,-1.07
2019-01-27T02:43:15.702Z,-1.09
2019-01-27T02:44:15.684Z,-1.10
2019-01-27T02:45:15.666Z,-1.15
2019-01-27T02:46:15.641Z,-1.13
2019-01-27T02:47:15.623Z,-1.12
2019-01-27T02:48:15.601Z,-1.23
2019-01-27T02:49:15.582Z,-1.13
2019-01-27T02:50:15.561Z,-1.23
2019-01-27T02:51:15.537Z,-1.16
2019-01-27T02:52:15.523Z,-1.22
2019-01-27T02:53:15.502Z,-1.38
2019-01-27T02:54:15.484Z,-1.27
2019-01-27T02:55:15.460Z,-1.17
2019-01-27T02:56:15.446Z,-1.22
2019-01-27T02:57:15.427Z,-1.28
2019-01-27T02:58:15.406Z,-1.16
2019-01-27T02:59:15.388Z,-1.28
2019-01-27T03:00:15.364Z,-1.28
2019-01-27T03:01:15.345Z,-1.30
2019-01-27T03:02:15.325Z,-1.27
2019-01-27T03:03:15.306Z,-1.33
2019-01-27T03:04:15.289Z,-1.28
2019-01-27T03:05:15.266Z,-1.25
2019-01-27T03:06:15.246Z,-1.28
2019-01-27T03:07:15.225Z,-1.33
2019-01-27T03:08:15.203Z,-1.23
2019-01-27T03:09:15.185Z,-1.34
2019-01-27T03:10:15.164Z,-1.33
2019-01-27T03:11:15.147Z,-1.35
2019-01-27T03:12:15.119Z,-1.35
2019-01-27T03:13:15.103Z,-1.37
2019-01-27T03:14:15.083Z,-1.40
2019-01-27T03:15:15.063Z,-1.48
2019-01-27T03:16:15.047Z,-1.41
2019-01-27T03:17:15.025Z,-1.48
2019-01-27T03:18:15.004Z,-1.46
2019-01-27T03:19:14.984Z,-1.51
2019-01-27T03:20:14.958Z,-1.52
2019-01-27T03:21:14.946Z,-1.46
2019-01-27T03:22:14.918Z,-1.46
2019-01-27T03:23:14.904Z,-1.51
2019-01-27T03:24:14.885Z,-1.46
2019-01-27T03:25:14.862Z,-1.51
2019-01-27T03:26:14.843Z,-1.51
2019-01-27T03:27:14.817Z,-1.45
2019-01-27T03:28:14.806Z,-1.41
2019-01-27T03:29:14.779Z,-1.41
2019-01-27T03:30:14.764Z,-1.40
2019-01-27T03:31:14.751Z,-1.34
2019-01-27T03:32:14.723Z,-1.31
2019-01-27T03:33:14.702Z,-1.37
2019-01-27T03:34:14.681Z,-1.33
2019-01-27T03:35:14.658Z,-1.31
2019-01-27T03:36:14.637Z,-1.35
2019-01-27T03:37:14.613Z,-1.38
2019-01-27T03:38:14.598Z,-1.41
2019-01-27T03:39:14.583Z,-1.43
2019-01-27T03:40:14.560Z,-1.45
2019-01-27T03:41:14.541Z,-1.45
2019-01-27T03:42:14.522Z,-1.41
2019-01-27T03:43:14.499Z,-1.45
2019-01-27T03:44:14.486Z,-1.52
2019-01-27T03:45:14.458Z,-1.43
2019-01-27T03:46:14.439Z,-1.51
2019-01-27T03:47:14.417Z,-1.46
2019-01-27T03:48:14.398Z,-1.58
2019-01-27T03:49:14.380Z,-1.52
2019-01-27T03:50:14.360Z,-1.59
2019-01-27T03:51:14.339Z,-1.52
2019-01-27T03:52:14.318Z,-1.56
2019-01-27T03:53:14.314Z,-1.55
2019-01-27T03:54:14.275Z,-1.67
2019-01-27T03:55:14.270Z,-1.59
2019-01-27T03:56:14.237Z,-1.59
2019-01-27T03:57:14.220Z,-1.61
2019-01-27T03:58:14.195Z,-1.73
2019-01-27T03:59:14.182Z,-1.70
2019-01-27T04:00:14.154Z,-1.74
2019-01-27T04:01:14.138Z,-1.72
2019-01-27T04:02:14.119Z,-1.79
2019-01-27T04:03:14.101Z,-1.76
2019-01-27T04:04:14.110Z,-1.73
2019-01-27T04:05:14.056Z,-1.70
2019-01-27T04:06:14.036Z,-1.72
2019-01-27T04:07:14.019Z,-1.77
2019-01-27T04:08:14.002Z,-1.73
2019-01-27T04:09:13.971Z,-1.64
2019-01-27T04:10:13.963Z,-1.79
2019-01-27T04:11:13.930Z,-1.79
2019-01-27T04:12:13.916Z,-1.76
2019-01-27T04:13:13.891Z,-1.77
2019-01-27T04:14:13.882Z,-1.74
2019-01-27T04:15:13.855Z,-1.76
2019-01-27T04:16:13.831Z,-1.79
2019-01-27T04:17:13.813Z,-1.77
2019-01-27T04:18:13.824Z,-1.82
2019-01-27T04:19:13.777Z,-1.85
2019-01-27T04:20:13.753Z,-1.88
2019-01-27T04:21:13.737Z,-1.95
2019-01-27T04:22:13.709Z,-1.88
2019-01-27T04:23:13.701Z,-1.98
2019-01-27T04:24:13.685Z,-1.98
2019-01-27T04:25:13.668Z,-1.97
2019-01-27T04:26:13.628Z,-2.08
2019-01-27T04:27:13.613Z,-2.05
2019-01-27T04:28:13.598Z,-2.09
2019-01-27T04:29:13.579Z,-2.20
2019-01-27T04:30:13.548Z,-2.13
2019-01-27T04:31:13.530Z,-2.23
2019-01-27T04:32:13.507Z,-2.18
2019-01-27T04:33:13.489Z,-2.26
2019-01-27T04:34:13.476Z,-2.26
2019-01-27T04:35:13.449Z,-2.27
2019-01-27T04:36:13.428Z,-2.24
2019-01-27T04:37:13.408Z,-2.24
2019-01-27T04:38:13.395Z,-2.32
2019-01-27T04:39:13.366Z,-2.30
2019-01-27T04:40:13.347Z,-2.21
2019-01-27T04:41:13.326Z,-2.26
2019-01-27T04:42:13.299Z,-2.21
2019-01-27T04:43:13.289Z,-2.18
2019-01-27T04:44:13.280Z,-2.24
2019-01-27T04:45:13.259Z,-2.32
2019-01-27T04:46:13.224Z,-2.20
2019-01-27T04:47:13.201Z,-2.15
2019-01-27T04:48:13.184Z,-2.20
2019-01-27T04:49:13.161Z,-2.18
2019-01-27T04:50:13.143Z,-2.20
2019-01-27T04:51:13.131Z,-2.18
2019-01-27T04:52:13.100Z,-2.21
2019-01-27T04:53:13.077Z,-2.27
2019-01-27T04:54:13.057Z,-2.16
2019-01-27T04:55:13.040Z,-2.16
2019-01-27T04:56:13.018Z,-2.23
2019-01-27T04:57:12.998Z,-2.21
2019-01-27T04:58:12.976Z,-2.20
2019-01-27T04:59:12.958Z,-2.23
2019-01-27T05:00:12.940Z,-2.16
2019-01-27T05:01:12.914Z,-2.18
2019-01-27T05:02:12.894Z,-2.16
2019-01-27T05:03:12.873Z,-2.18
2019-01-27T05:04:12.849Z,-2.21
2019-01-27T05:05:12.832Z,-2.27
2019-01-27T05:06:12.827Z,-2.20
2019-01-27T05:07:12.788Z,-2.16
2019-01-27T05:08:12.780Z,-2.23
2019-01-27T05:09:12.757Z,-2.26
2019-01-27T05:10:12.728Z,-2.23
2019-01-27T05:11:12.705Z,-2.23
2019-01-27T05:12:12.685Z,-2.29
2019-01-27T05:13:12.668Z,-2.23
2019-01-27T05:14:12.645Z,-2.15
2019-01-27T05:15:12.625Z,-2.16
2019-01-27T05:16:12.607Z,-2.24
2019-01-27T05:17:12.581Z,-2.21
2019-01-27T05:18:12.566Z,-2.26
2019-01-27T05:19:12.544Z,-2.20
2019-01-27T05:20:12.521Z,-2.21
2019-01-27T05:21:12.498Z,-2.23
2019-01-27T05:22:12.484Z,-2.20
2019-01-27T05:23:12.460Z,-2.21
2019-01-27T05:24:12.444Z,-2.21
2019-01-27T05:25:12.418Z,-2.23
2019-01-27T05:26:12.394Z,-2.23
2019-01-27T05:27:12.376Z,-2.16
2019-01-27T05:28:12.353Z,-2.26
2019-01-27T05:29:12.332Z,-2.20
2019-01-27T05:30:12.332Z,-2.23
2019-01-27T05:31:12.297Z,-2.24
2019-01-27T05:32:12.281Z,-2.20
2019-01-27T05:33:12.254Z,-2.23
2019-01-27T05:34:12.231Z,-2.23
2019-01-27T05:35:12.216Z,-2.24
2019-01-27T05:36:12.190Z,-2.29
2019-01-27T05:37:12.174Z,-2.30
2019-01-27T05:38:12.148Z,-2.20
2019-01-27T05:39:12.127Z,-2.18
2019-01-27T05:40:12.108Z,-2.21
2019-01-27T05:41:12.088Z,-2.21
2019-01-27T05:42:12.063Z,-2.24
2019-01-27T05:43:12.051Z,-2.30
2019-01-27T05:44:12.022Z,-2.26
2019-01-27T05:45:12.007Z,-2.30
2019-01-27T05:46:11.985Z,-2.30
2019-01-27T05:47:11.959Z,-2.20
2019-01-27T05:48:11.936Z,-2.21
2019-01-27T05:49:11.922Z,-2.21
2019-01-27T05:50:11.898Z,-2.21
2019-01-27T05:51:11.877Z,-2.21
2019-01-27T05:52:11.857Z,-2.18
2019-01-27T05:53:11.837Z,-2.20
2019-01-27T05:54:11.819Z,-2.23
2019-01-27T05:55:11.795Z,-2.20
2019-01-27T05:56:11.784Z,-2.26
2019-01-27T05:57:11.753Z,-2.35
2019-01-27T05:58:11.738Z,-2.26
2019-01-27T05:59:11.719Z,-2.34
2019-01-27T06:00:11.694Z,-2.27
2019-01-27T06:01:11.674Z,-2.35
2019-01-27T06:02:11.650Z,-2.30
2019-01-27T06:03:11.628Z,-2.20
2019-01-27T06:04:11.608Z,-2.20
2019-01-27T06:05:11.586Z,-2.30
2019-01-27T06:06:11.567Z,-2.40
2019-01-27T06:07:11.549Z,-2.30
2019-01-27T06:08:11.523Z,-2.34
2019-01-27T06:09:11.501Z,-2.26
2019-01-27T06:10:11.489Z,-2.30
2019-01-27T06:11:11.472Z,-2.23
2019-01-27T06:12:11.444Z,-2.27
2019-01-27T06:13:11.427Z,-2.24
2019-01-27T06:14:11.402Z,-2.30
2019-01-27T06:15:11.379Z,-2.35
2019-01-27T06:16:11.359Z,-2.37
2019-01-27T06:17:11.341Z,-2.40
2019-01-27T06:18:11.321Z,-2.39
2019-01-27T06:19:11.298Z,-2.42
2019-01-27T06:20:11.326Z,-2.43
2019-01-27T06:21:11.265Z,-2.53
2019-01-27T06:22:11.233Z,-2.50
2019-01-27T06:23:11.238Z,-2.45
2019-01-27T06:24:11.193Z,-2.49
2019-01-27T06:25:11.172Z,-2.55
2019-01-27T06:26:11.154Z,-2.49
2019-01-27T06:27:11.134Z,-2.52
2019-01-27T06:28:11.110Z,-2.48
2019-01-27T06:29:11.082Z,-2.49
2019-01-27T06:30:11.070Z,-2.50
2019-01-27T06:31:11.049Z,-2.49
2019-01-27T06:32:11.031Z,-2.49
2019-01-27T06:33:11.009Z,-2.50
2019-01-27T06:34:10.983Z,-2.52
2019-01-27T06:35:10.965Z,-2.52
2019-01-27T06:36:10.937Z,-2.43
2019-01-27T06:37:10.922Z,-2.37
2019-01-27T06:38:10.901Z,-2.48
2019-01-27T06:39:10.883Z,-2.39
2019-01-27T06:40:10.860Z,-2.46
2019-01-27T06:41:10.838Z,-2.49
2019-01-27T06:42:10.816Z,-2.50
2019-01-27T06:43:10.800Z,-2.52
2019-01-27T06:44:10.772Z,-2.52
2019-01-27T06:45:10.759Z,-2.56
2019-01-27T06:46:10.735Z,-2.52
2019-01-27T06:47:10.728Z,-2.53
2019-01-27T06:48:10.692Z,-2.56
2019-01-27T06:49:10.670Z,-2.52
2019-01-27T06:50:10.651Z,-2.49
2019-01-27T06:51:10.626Z,-2.50
2019-01-27T06:52:10.615Z,-2.48
2019-01-27T06:53:10.584Z,-2.53
2019-01-27T06:54:10.564Z,-2.53
2019-01-27T06:55:10.553Z,-2.50
2019-01-27T06:56:10.523Z,-2.52
2019-01-27T06:57:10.505Z,-2.46
2019-01-27T06:58:10.480Z,-2.52
2019-01-27T06:59:10.465Z,-2.53
2019-01-27T07:00:10.439Z,-2.50
2019-01-27T07:01:10.419Z,-2.50
2019-01-27T07:02:10.397Z,-2.52
2019-01-27T07:03:10.380Z,-2.52
2019-01-27T07:04:10.358Z,-2.52
2019-01-27T07:05:10.338Z,-2.50
2019-01-27T07:06:10.312Z,-2.55
2019-01-27T07:07:10.299Z,-2.56
2019-01-27T07:08:10.303Z,-2.53
2019-01-27T07:09:10.254Z,-2.48
2019-01-27T07:10:10.230Z,-2.42
2019-01-27T07:11:10.201Z,-2.32
2019-01-27T07:12:10.189Z,-2.30
2019-01-27T07:13:10.169Z,-2.29
2019-01-27T07:14:10.147Z,-2.27
2019-01-27T07:15:10.126Z,-2.27
2019-01-27T07:16:10.103Z,-2.24
2019-01-27T07:17:10.084Z,-2.23
2019-01-27T07:18:10.066Z,-2.20
2019-01-27T07:19:10.073Z,-2.29
2019-01-27T07:20:10.040Z,-2.16
2019-01-27T07:21:10.014Z,-2.21
2019-01-27T07:22:09.979Z,-2.12
2019-01-27T07:23:10.015Z,-2.20
2019-01-27T07:24:09.933Z,-2.16
2019-01-27T07:25:09.946Z,-2.16
2019-01-27T07:26:09.890Z,-2.09
2019-01-27T07:27:09.875Z,-1.98
2019-01-27T07:28:09.850Z,-2.12
2019-01-27T07:29:09.848Z,-2.08
2019-01-27T07:30:09.806Z,-2.05
2019-01-27T07:31:09.788Z,-2.08
2019-01-27T07:32:09.775Z,-2.13
2019-01-27T07:33:09.752Z,-2.13
2019-01-27T07:34:09.732Z,-2.24
2019-01-27T07:35:09.730Z,-2.16
2019-01-27T07:36:09.711Z,-2.18
2019-01-27T07:37:09.666Z,-2.23
2019-01-27T07:38:09.656Z,-2.18
2019-01-27T07:39:09.617Z,-2.15
2019-01-27T07:40:09.616Z,-2.16
2019-01-27T07:41:09.579Z,-2.06
2019-01-27T07:42:09.557Z,-2.13
2019-01-27T07:43:09.542Z,-2.12
2019-01-27T07:44:09.516Z,-2.09
2019-01-27T07:45:09.498Z,-1.95
2019-01-27T07:46:09.494Z,-1.91
2019-01-27T07:47:09.473Z,-1.94
2019-01-27T07:48:09.435Z,-1.92
2019-01-27T07:49:09.416Z,-1.77
2019-01-27T07:50:09.407Z,-1.82
2019-01-27T07:51:09.370Z,-1.80
2019-01-27T07:52:09.348Z,-1.84
2019-01-27T07:53:09.336Z,-1.77
2019-01-27T07:54:09.304Z,-1.76
2019-01-27T07:55:09.291Z,-1.74
2019-01-27T07:56:09.278Z,-1.69
2019-01-27T07:57:09.248Z,-1.67
2019-01-27T07:58:09.236Z,-1.66
2019-01-27T07:59:09.205Z,-1.67
2019-01-27T08:00:09.181Z,-1.67
2019-01-27T08:01:09.159Z,-1.62
2019-01-27T08:02:09.141Z,-1.67
2019-01-27T08:03:12.166Z,-1.64
2019-01-27T08:04:09.098Z,-1.62
2019-01-27T08:05:09.083Z,-1.56
2019-01-27T08:06:09.059Z,-1.58
2019-01-27T08:07:09.038Z,-1.59
2019-01-27T08:08:09.020Z,-1.55
2019-01-27T08:09:08.998Z,-1.55
2019-01-27T08:10:08.974Z,-1.49
2019-01-27T08:11:08.956Z,-1.55
2019-01-27T08:12:08.940Z,-1.54
2019-01-27T08:13:08.916Z,-1.54
2019-01-27T08:14:08.896Z,-1.46
2019-01-27T08:15:08.873Z,-1.34
2019-01-27T08:16:08.853Z,-1.25
2019-01-27T08:17:08.831Z,-1.15
2019-01-27T08:18:08.823Z,-1.19
2019-01-27T08:19:08.792Z,-1.23
2019-01-27T08:20:08.776Z,-1.05
2019-01-27T08:21:08.750Z,-1.13
2019-01-27T08:22:08.728Z,-1.10
2019-01-27T08:23:08.713Z,-0.99
2019-01-27T08:24:08.688Z,-0.91
2019-01-27T08:25:08.685Z,-0.98
2019-01-27T08:26:08.651Z,-0.95
2019-01-27T08:27:08.633Z,-0.85
2019-01-27T08:28:08.611Z,-0.78
2019-01-27T08:29:08.581Z,-0.72
2019-01-27T08:30:08.569Z,-0.57
2019-01-27T08:31:08.550Z,-0.52
2019-01-27T08:32:08.528Z,-0.39
2019-01-27T08:33:08.506Z,-0.33
2019-01-27T08:34:08.482Z,-0.10
2019-01-27T08:35:08.463Z,-0.03
2019-01-27T08:36:08.448Z,0.08
2019-01-27T08:37:08.426Z,0.26
2019-01-27T08:38:08.409Z,0.24
2019-01-27T08:39:08.379Z,0.21
2019-01-27T08:40:08.367Z,0.33
2019-01-27T08:41:08.351Z,0.28
2019-01-27T08:42:08.323Z,0.33
2019-01-27T08:43:08.306Z,0.38
2019-01-27T08:44:08.290Z,0.42
2019-01-27T08:45:08.260Z,0.42
2019-01-27T08:46:08.246Z,0.55
2019-01-27T08:47:08.223Z,0.58
2019-01-27T08:48:08.206Z,0.65
2019-01-27T08:49:08.187Z,0.76
2019-01-27T08:50:08.169Z,0.75
2019-01-27T08:51:08.159Z,0.86
2019-01-27T08:52:08.126Z,0.97
2019-01-27T08:53:08.106Z,0.96
2019-01-27T08:54:08.090Z,0.96
2019-01-27T08:55:08.071Z,0.96
2019-01-27T08:56:08.052Z,1.15
2019-01-27T08:57:08.027Z,1.23
2019-01-27T08:58:08.012Z,1.41
2019-01-27T08:59:07.993Z,1.69
2019-01-27T09:00:07.974Z,1.81
2019-01-27T09:01:07.955Z,2.02
2019-01-27T09:02:07.936Z,2.20
2019-01-27T09:03:07.914Z,2.45
2019-01-27T09:04:07.903Z,2.57
2019-01-27T09:05:07.879Z,2.75
2019-01-27T09:06:07.860Z,2.75
2019-01-27T09:07:07.838Z,2.82
2019-01-27T09:08:07.826Z,2.79
2019-01-27T09:09:07.809Z,2.79
2019-01-27T09:10:07.788Z,2.95
2019-01-27T09:11:07.769Z,2.93
2019-01-27T09:12:07.751Z,2.85
2019-01-27T09:13:11.296Z,2.82
2019-01-27T09:14:07.711Z,2.79
2019-01-27T09:15:07.695Z,2.66
2019-01-27T09:16:07.677Z,2.71
2019-01-27T09:17:07.657Z,2.71
2019-01-27T09:18:07.634Z,2.84
2019-01-27T09:19:07.626Z,2.95
2019-01-27T09:20:07.605Z,3.10
2019-01-27T09:21:07.586Z,3.21
2019-01-27T09:22:07.572Z,3.42
2019-01-27T09:23:07.550Z,3.78
2019-01-27T09:24:07.536Z,3.98
2019-01-27T09:25:07.516Z,4.08
2019-01-27T09:26:07.496Z,4.29
2019-01-27T09:27:07.477Z,4.50
2019-01-27T09:28:07.466Z,4.80
2019-01-27T09:29:07.444Z,4.73
2019-01-27T09:30:07.426Z,4.80
2019-01-27T09:31:07.407Z,5.00
2019-01-27T09:32:07.393Z,5.10
2019-01-27T09:33:07.368Z,5.39
2019-01-27T09:34:13.159Z,5.56
2019-01-27T09:35:07.342Z,5.60
2019-01-27T09:36:07.324Z,5.57
2019-01-27T09:37:07.306Z,5.56
2019-01-27T09:38:07.290Z,5.67
2019-01-27T09:39:07.270Z,5.74
2019-01-27T09:40:07.267Z,5.67
2019-01-27T09:41:07.239Z,5.63
2019-01-27T09:42:07.224Z,5.60
2019-01-27T09:43:07.207Z,5.58
2019-01-27T09:44:07.191Z,5.57
2019-01-27T09:45:07.169Z,5.57
2019-01-27T09:46:11.436Z,5.53
2019-01-27T09:47:07.153Z,5.61
2019-01-27T09:48:07.125Z,5.63
2019-01-27T09:49:07.109Z,5.65
2019-01-27T09:50:07.089Z,5.57
2019-01-27T09:51:07.077Z,5.64
2019-01-27T09:52:07.056Z,5.63
2019-01-27T09:53:07.044Z,5.61
2019-01-27T09:54:07.024Z,5.57
2019-01-27T09:55:07.009Z,5.40
2019-01-27T09:56:06.996Z,5.27
2019-01-27T09:57:06.981Z,5.06
2019-01-27T09:58:06.959Z,5.09
2019-01-27T09:59:06.946Z,5.09
2019-01-27T10:00:06.928Z,5.09
2019-01-27T10:01:06.911Z,5.12
2019-01-27T10:02:06.898Z,5.17
2019-01-27T10:03:06.888Z,5.21
2019-01-27T10:04:06.863Z,5.25
2019-01-27T10:05:06.850Z,5.25
2019-01-27T10:06:06.831Z,5.18
2019-01-27T10:07:06.811Z,5.35
2019-01-27T10:08:06.805Z,5.31
2019-01-27T10:09:06.782Z,5.39
2019-01-27T10:10:06.767Z,5.46
2019-01-27T10:11:06.754Z,5.43
2019-01-27T10:12:06.736Z,5.53
2019-01-27T10:13:06.721Z,5.64
2019-01-27T10:14:06.698Z,5.63
2019-01-27T10:15:06.685Z,5.56
2019-01-27T10:16:06.667Z,5.61
2019-01-27T10:17:06.653Z,5.64
2019-01-27T10:18:06.635Z,5.63
2019-01-27T10:19:06.623Z,5.56
2019-01-27T10:20:06.607Z,5.65
2019-01-27T10:21:06.585Z,5.54
2019-01-27T10:22:06.573Z,5.60
2019-01-27T10:23:06.556Z,5.65
2019-01-27T10:24:06.540Z,5.64
2019-01-27T10:25:06.532Z,5.58
2019-01-27T10:26:06.510Z,5.57
2019-01-27T10:27:06.499Z,5.42
2019-01-27T10:28:06.477Z,5.28
2019-01-27T10:29:06.463Z,5.35
2019-01-27T10:30:06.444Z,5.39
2019-01-27T10:31:06.435Z,5.57
2019-01-27T10:32:06.417Z,5.65
2019-01-27T10:33:06.401Z,5.74
2019-01-27T10:34:06.382Z,5.79
2019-01-27T10:35:06.367Z,5.94
2019-01-27T10:36:06.349Z,5.90
2019-01-27T10:37:12.078Z,5.94
2019-01-27T10:38:06.333Z,6.17
2019-01-27T10:39:06.301Z,6.18
2019-01-27T10:40:09.135Z,6.43
2019-01-27T10:41:06.273Z,6.92
2019-01-27T10:42:06.256Z,7.39
2019-01-27T10:43:06.239Z,7.79
2019-01-27T10:44:06.231Z,8.02
2019-01-27T10:45:06.214Z,8.02
2019-01-27T10:46:06.193Z,8.30
2019-01-27T10:47:06.183Z,8.61
2019-01-27T10:48:06.164Z,8.99
2019-01-27T10:49:06.156Z,9.46
2019-01-27T10:50:06.142Z,9.58
2019-01-27T10:51:06.118Z,9.79
2019-01-27T10:52:06.103Z,9.91
2019-01-27T10:53:06.092Z,10.05
2019-01-27T10:54:06.077Z,10.33
2019-01-27T10:55:06.057Z,10.44
2019-01-27T10:56:06.049Z,10.29
2019-01-27T10:57:06.029Z,10.15
2019-01-27T10:58:06.019Z,9.96
2019-01-27T10:59:06.006Z,9.87
2019-01-27T11:00:06.003Z,9.79
2019-01-27T11:01:05.978Z,9.74
2019-01-27T11:02:05.966Z,9.81
2019-01-27T11:03:05.945Z,9.64
2019-01-27T11:04:05.935Z,9.57
2019-01-27T11:05:05.919Z,9.31
2019-01-27T11:06:05.909Z,8.98
2019-01-27T11:07:05.895Z,8.61
2019-01-27T11:08:05.949Z,8.26
2019-01-27T11:09:05.871Z,8.19
2019-01-27T11:10:05.851Z,8.19
2019-01-27T11:11:05.841Z,8.11
2019-01-27T11:12:05.824Z,8.05
2019-01-27T11:13:05.817Z,7.64
2019-01-27T11:14:05.796Z,7.58
2019-01-27T11:15:05.782Z,7.60
2019-01-27T11:16:05.764Z,7.53
2019-01-27T11:17:05.756Z,7.67
2019-01-27T11:18:05.736Z,7.48
2019-01-27T11:19:05.725Z,7.37
2019-01-27T11:20:05.707Z,7.31
2019-01-27T11:21:05.697Z,7.37
2019-01-27T11:22:05.705Z,7.48
2019-01-27T11:23:05.671Z,7.34
2019-01-27T11:24:05.651Z,7.46
2019-01-27T11:25:05.637Z,7.49
2019-01-27T11:26:05.624Z,7.55
2019-01-27T11:27:05.614Z,7.67
2019-01-27T11:28:05.595Z,7.61
2019-01-27T11:29:05.586Z,7.69
2019-01-27T11:30:05.566Z,7.68
2019-01-27T11:31:05.551Z,7.77
2019-01-27T11:32:05.539Z,7.71
2019-01-27T11:33:05.527Z,7.85
2019-01-27T11:34:05.503Z,7.90
2019-01-27T11:35:05.499Z,7.97
2019-01-27T11:36:05.480Z,8.15
2019-01-27T11:37:05.465Z,8.37
2019-01-27T11:38:05.454Z,8.47
2019-01-27T11:39:05.440Z,8.95
2019-01-27T11:40:05.424Z,8.95
2019-01-27T11:41:05.408Z,8.95
2019-01-27T11:42:05.394Z,8.95
2019-01-27T11:43:05.383Z,9.05
2019-01-27T11:44:05.366Z,9.17
2019-01-27T11:45:05.354Z,9.29
2019-01-27T11:46:05.337Z,9.24
2019-01-27T11:47:05.325Z,9.28
2019-01-27T11:48:05.309Z,9.29
2019-01-27T11:49:05.298Z,9.28
2019-01-27T11:50:05.281Z,9.33
2019-01-27T11:51:05.268Z,9.24
2019-01-27T11:52:05.256Z,9.26
2019-01-27T11:53:05.240Z,9.20
2019-01-27T11:54:05.238Z,9.21
2019-01-27T11:55:05.216Z,9.13
2019-01-27T11:56:05.213Z,9.17
2019-01-27T11:57:05.187Z,9.10
2019-01-27T11:58:05.171Z,8.98
2019-01-27T11:59:05.159Z,8.99
2019-01-27T12:00:05.149Z,8.91
2019-01-27T12:01:05.133Z,8.96
2019-01-27T12:02:05.115Z,8.98
2019-01-27T12:03:05.104Z,9.05
2019-01-27T12:04:05.100Z,9.04
2019-01-27T12:05:05.076Z,9.32
2019-01-27T12:06:05.067Z,9.54
2019-01-27T12:07:05.045Z,9.60
2019-01-27T12:08:05.037Z,9.65
2019-01-27T12:10:01.425Z,9.84
2019-01-27T12:11:01.363Z,10.04
2019-01-27T12:12:58.442Z,10.07
2019-01-27T12:13:58.414Z,10.11
2019-01-27T12:15:53.285Z,10.48
2019-01-27T12:16:53.241Z,10.71
2019-01-27T12:18:48.102Z,10.81
2019-01-27T12:19:48.078Z,10.88
2019-01-27T12:21:43.470Z,10.89
2019-01-27T12:22:43.407Z,10.66
2019-01-27T12:24:39.114Z,10.40
2019-01-27T12:25:39.085Z,10.20
2019-01-27T12:27:33.962Z,9.56
2019-01-27T12:28:33.921Z,9.38
2019-01-27T12:30:28.815Z,8.87
2019-01-27T12:31:28.773Z,8.79
2019-01-27T12:33:46.302Z,8.89
2019-01-27T12:34:46.266Z,8.89
2019-01-27T12:36:41.129Z,8.86
2019-01-27T12:37:41.104Z,8.84
2019-01-27T12:39:37.011Z,8.95
2019-01-27T12:40:36.949Z,8.99
2019-01-27T12:42:32.336Z,8.98
2019-01-27T12:43:32.306Z,8.98
2019-01-27T12:45:27.670Z,8.91
2019-01-27T12:46:27.640Z,8.96
2019-01-27T12:48:22.494Z,8.89
2019-01-27T12:49:22.464Z,8.94
2019-01-27T12:51:17.339Z,8.95
2019-01-27T12:52:17.293Z,8.80
2019-01-27T12:54:11.918Z,8.81
2019-01-27T12:55:11.880Z,8.89
2019-01-27T12:57:07.727Z,8.84
2019-01-27T12:58:07.699Z,8.80
2019-01-27T13:00:02.558Z,8.91
2019-01-27T13:01:02.534Z,8.95
2019-01-27T13:02:57.394Z,8.92
2019-01-27T13:03:57.362Z,9.05
2019-01-27T13:05:51.848Z,9.23
2019-01-27T13:06:51.816Z,9.24
2019-01-27T13:08:46.816Z,9.28
2019-01-27T13:09:46.785Z,9.42
2019-01-27T13:11:41.650Z,9.43
2019-01-27T13:12:41.616Z,9.38
2019-01-27T13:14:36.483Z,9.47
2019-01-27T13:15:36.451Z,9.46
2019-01-27T13:17:31.308Z,9.39
2019-01-27T13:18:31.282Z,9.42
2019-01-27T13:20:26.156Z,9.51
2019-01-27T13:21:26.108Z,9.51
2019-01-27T13:23:20.974Z,9.47
2019-01-27T13:24:20.945Z,9.46